Time;durP1;ratioP1;P1;durP2;ratioP2;P2;SDS_P1;SDS_P2;PMS_P1;PMS_P2;Temp;Humidity;BMP_temperature;BMP_pressure;BME280_temperature;BME280_humidity;BME280_pressure;Samples;Min_cycle;Max_cycle;Signal;HPM_P1;HPM_P2
2021/09/26 00:01:37;;;;;;;;;0.25;0.25;;;;;18.65;70.96;101019.91;5059216;28;45276;-82
2021/09/26 00:04:05;;;;;;;;;1.00;1.00;;;;;18.66;70.97;101022.53;5056758;28;45209;-84
2021/09/26 00:06:31;;;;;;;;;0.00;0.00;;;;;18.63;71.03;101012.03;5060252;28;45409;-83
2021/09/26 00:08:57;;;;;;;;;1.50;0.25;;;;;18.68;70.61;101020.69;5057204;28;45414;-81
2021/09/26 00:11:23;;;;;;;;;0.00;0.00;;;;;18.45;70.88;100977.25;5061323;28;45394;-82
2021/09/26 00:13:49;;;;;;;;;0.00;0.00;;;;;18.68;70.85;101014.59;5059429;28;45547;-80
2021/09/26 00:16:15;;;;;;;;;0.00;0.00;;;;;18.45;71.12;100984.28;5057351;28;45678;-82
2021/09/26 00:18:40;;;;;;;;;1.00;1.00;;;;;18.63;70.93;101027.84;5060986;28;45243;-81
2021/09/26 00:21:06;;;;;;;;;0.00;0.00;;;;;18.63;70.76;101032.25;5053439;28;45218;-82
2021/09/26 00:23:34;;;;;;;;;1.00;1.00;;;;;18.41;70.57;100995.78;5054994;28;45385;-84
2021/09/26 00:26:02;;;;;;;;;0.50;0.50;;;;;18.59;70.61;101032.31;5052042;28;45359;-83
2021/09/26 00:28:27;;;;;;;;;0.00;0.00;;;;;18.60;70.34;101033.19;5056755;28;45517;-82
2021/09/26 00:30:55;;;;;;;;;0.00;0.00;;;;;18.47;70.35;101011.50;5057151;28;45437;-81
2021/09/26 00:33:20;;;;;;;;;0.00;0.00;;;;;18.49;70.14;101020.22;5087612;27;45560;-81
2021/09/26 00:35:45;;;;;;;;;0.00;0.00;;;;;18.53;70.56;101031.59;5059327;28;45518;-82
2021/09/26 00:38:11;;;;;;;;;0.00;0.00;;;;;18.55;70.35;101042.94;5052913;28;45394;-82
2021/09/26 00:40:37;;;;;;;;;0.00;0.00;;;;;18.27;70.38;100996.06;5055148;28;45273;-82
2021/09/26 00:43:04;;;;;;;;;0.00;0.00;;;;;18.39;70.18;101014.28;5058184;28;45158;-83
2021/09/26 00:45:30;;;;;;;;;0.25;0.25;;;;;18.36;70.44;101014.31;5057823;28;47016;-82
2021/09/26 00:47:55;;;;;;;;;0.00;0.00;;;;;18.44;70.21;101030.00;5063236;28;45341;-81
2021/09/26 00:50:21;;;;;;;;;0.00;0.00;;;;;18.53;70.23;101053.50;5059751;28;45461;-82
2021/09/26 00:52:48;;;;;;;;;1.75;1.00;;;;;18.54;70.41;101064.94;5058863;28;45390;-83
2021/09/26 00:55:15;;;;;;;;;0.00;0.00;;;;;18.40;70.52;101044.97;5055685;28;45314;-82
2021/09/26 00:57:42;;;;;;;;;0.00;0.00;;;;;18.26;70.43;101015.41;5057664;28;45277;-83
2021/09/26 01:00:10;;;;;;;;;0.00;0.00;;;;;18.56;70.15;101068.44;5068151;28;45216;-83
2021/09/26 01:02:35;;;;;;;;;0.50;0.00;;;;;18.49;70.34;101051.84;5065124;28;45386;-82
2021/09/26 01:05:01;;;;;;;;;0.00;0.00;;;;;18.55;70.30;101054.38;5067006;28;45548;-83
2021/09/26 01:07:43;;;;;;;;;0.00;0.00;;;;;18.58;70.18;101054.31;5069883;28;45964;-81
2021/09/26 01:10:22;;;;;;;;;0.00;0.00;;;;;18.60;69.81;101051.66;5068401;28;45243;-81
2021/09/26 01:13:04;;;;;;;;;0.00;0.00;;;;;18.61;69.71;101058.66;5065353;28;45350;-81
2021/09/26 01:15:44;;;;;;;;;0.00;0.00;;;;;18.58;69.90;101037.63;5063323;28;48319;-81
2021/09/26 01:18:49;;;;;;;;;0.00;0.00;;;;;18.65;69.49;101057.69;5064192;28;45313;-82
2021/09/26 01:21:36;;;;;;;;;0.00;0.00;;;;;18.67;70.09;101061.16;5046502;28;45377;-82
2021/09/26 01:24:35;;;;;;;;;0.00;0.00;;;;;18.67;69.69;101058.53;5074595;28;45297;-81
2021/09/26 01:27:21;;;;;;;;;1.50;0.75;;;;;18.63;69.74;101056.84;5086436;27;45463;-81
2021/09/26 01:30:25;;;;;;;;;0.00;0.00;;;;;18.67;69.55;101063.81;5086244;27;45360;-81
2021/09/26 01:33:18;;;;;;;;;0.00;0.00;;;;;18.68;69.50;101067.31;5084837;28;45321;-81
2021/09/26 01:35:56;;;;;;;;;0.50;0.00;;;;;18.50;69.80;101045.69;5085961;28;45379;-80
2021/09/26 01:38:30;;;;;;;;;0.00;0.00;;;;;18.44;69.25;101025.56;5064245;27;45330;-80
2021/09/26 01:41:01;;;;;;;;;0.50;0.50;;;;;18.61;69.16;101059.53;5064256;28;45465;-80
2021/09/26 01:43:35;;;;;;;;;0.00;0.00;;;;;18.57;69.59;101049.06;5066093;28;45351;-80
2021/09/26 01:46:05;;;;;;;;;0.25;0.25;;;;;18.57;69.99;101057.84;5064273;28;45475;-80
2021/09/26 01:48:42;;;;;;;;;0.00;0.00;;;;;18.66;69.31;101072.63;5065153;28;48516;-80
2021/09/26 01:51:09;;;;;;;;;0.00;0.00;;;;;18.53;69.32;101048.25;5063955;28;45324;-81
2021/09/26 01:53:42;;;;;;;;;0.00;0.00;;;;;18.65;69.33;101068.22;5053566;28;45290;-80
2021/09/26 01:56:10;;;;;;;;;0.00;0.00;;;;;18.42;69.56;101021.25;5043026;28;45290;-81
2021/09/26 01:58:36;;;;;;;;;0.00;0.00;;;;;18.42;69.31;101022.13;5043767;28;45346;-81
2021/09/26 02:01:02;;;;;;;;;0.00;0.00;;;;;18.63;69.40;101056.84;5041598;28;45760;-79
2021/09/26 02:03:29;;;;;;;;;0.00;0.00;;;;;18.41;69.42;101023.00;5054616;28;45512;-81
2021/09/26 02:05:55;;;;;;;;;1.00;0.00;;;;;18.38;69.19;101022.19;5063381;28;45586;-81
2021/09/26 02:08:21;;;;;;;;;1.00;1.00;;;;;18.38;69.18;101023.09;5062029;28;47333;-81
2021/09/26 02:10:48;;;;;;;;;0.00;0.00;;;;;18.35;68.98;101018.72;5062390;28;46116;-81
2021/09/26 02:13:59;;;;;;;;;0.00;0.00;;;;;18.30;69.17;101004.78;5082914;27;45360;-84
2021/09/26 02:16:34;;;;;;;;;0.00;0.00;;;;;17.40;69.29;100865.06;5030369;28;46881;-86
2021/09/26 02:19:02;;;;;;;;;0.00;0.00;;;;;17.85;69.39;100940.59;5014368;28;46935;-81
2021/09/26 02:21:32;;;;;;;;;0.75;0.75;;;;;18.16;69.53;100999.75;5060371;28;45345;-81
2021/09/26 02:23:59;;;;;;;;;0.00;0.00;;;;;17.64;69.17;100885.72;5063529;28;45266;-82
2021/09/26 02:26:34;;;;;;;;;0.00;0.00;;;;;18.07;69.44;100966.53;5071088;28;45471;-79
2021/09/26 02:29:05;;;;;;;;;0.00;0.00;;;;;18.64;68.97;101063.84;5062196;28;48546;-79
2021/09/26 02:31:39;;;;;;;;;0.00;0.00;;;;;18.63;69.22;101064.78;5063309;28;45312;-80
2021/09/26 02:34:13;;;;;;;;;0.00;0.00;;;;;18.15;69.10;100997.16;5063910;28;45354;-81
2021/09/26 02:36:38;;;;;;;;;0.00;0.00;;;;;17.63;69.45;100894.50;5062294;28;45355;-82
2021/09/26 02:39:19;;;;;;;;;0.00;0.00;;;;;18.39;69.10;101018.66;5063425;28;46548;-80
2021/09/26 02:42:08;;;;;;;;;0.00;0.00;;;;;18.27;69.08;100981.13;5063472;28;45270;-81
2021/09/26 02:44:48;;;;;;;;;0.00;0.00;;;;;17.61;68.81;100889.25;5063350;28;45468;-81
2021/09/26 02:47:36;;;;;;;;;0.00;0.00;;;;;18.33;69.19;101014.38;5063636;28;45362;-80
2021/09/26 02:50:07;;;;;;;;;0.75;0.50;;;;;17.71;68.91;100901.34;5063745;28;45251;-81
2021/09/26 02:52:33;;;;;;;;;0.00;0.00;;;;;17.47;69.34;100877.25;5063828;28;45184;-80
2021/09/26 02:55:12;;;;;;;;;0.00;0.00;;;;;18.14;69.22;100985.75;5063938;28;45290;-80
2021/09/26 02:57:38;;;;;;;;;0.00;0.00;;;;;18.53;69.63;101045.59;5065878;28;45470;-81
2021/09/26 03:00:07;;;;;;;;;0.00;0.00;;;;;17.41;69.27;100858.06;5063158;28;45930;-80
2021/09/26 03:02:50;;;;;;;;;0.00;0.00;;;;;17.78;69.67;100901.25;5069299;28;45343;-81
2021/09/26 04:15:01;;;;;;;;;0.00;0.00;;;;;17.68;73.30;100971.63;5136021;27;45374;-78
2021/09/26 04:17:27;;;;;;;;;0.00;0.00;;;;;17.65;72.56;100967.31;5116772;27;46142;-78
2021/09/26 04:19:52;;;;;;;;;0.00;0.00;;;;;17.86;73.37;100991.50;5114826;27;45206;-78
2021/09/26 04:22:17;;;;;;;;;0.00;0.00;;;;;17.78;72.78;100972.34;5125036;27;45238;-78
2021/09/26 04:24:43;;;;;;;;;0.75;0.75;;;;;17.64;72.70;100943.63;5114620;27;47084;-78
2021/09/26 04:27:08;;;;;;;;;0.00;0.00;;;;;17.89;72.42;100980.94;5117366;27;45444;-78
2021/09/26 04:29:33;;;;;;;;;0.00;0.00;;;;;17.63;72.58;100929.59;5118089;27;45254;-78
2021/09/26 04:31:59;;;;;;;;;0.00;0.00;;;;;17.61;72.58;100928.75;5117897;27;45296;-78
2021/09/26 04:34:27;;;;;;;;;0.00;0.00;;;;;17.62;72.51;100940.16;5112677;27;46881;-78
2021/09/26 04:36:54;;;;;;;;;1.00;1.00;;;;;17.89;72.57;100985.31;5118563;27;45476;-78
2021/09/26 04:39:19;;;;;;;;;0.00;0.00;;;;;17.88;72.36;100983.59;5133210;27;45404;-78
2021/09/26 04:41:45;;;;;;;;;0.00;0.00;;;;;17.82;72.46;100972.25;5117580;27;45573;-79
2021/09/26 04:44:10;;;;;;;;;0.00;0.00;;;;;17.50;72.67;100913.16;5116631;27;48570;-78
2021/09/26 04:46:36;;;;;;;;;0.00;0.00;;;;;17.80;72.80;100971.41;5117284;27;45954;-79
2021/09/26 04:49:01;;;;;;;;;0.00;0.00;;;;;17.74;72.74;100953.09;5118652;27;45301;-79
2021/09/26 04:51:26;;;;;;;;;0.00;0.00;;;;;17.68;72.73;100946.19;5117340;27;45472;-79
2021/09/26 04:53:52;;;;;;;;;0.00;0.00;;;;;17.71;72.52;100953.16;5117581;27;45432;-78
2021/09/26 04:56:17;;;;;;;;;2.00;0.25;;;;;17.62;72.82;100945.41;5116733;27;45962;-79
2021/09/26 04:58:43;;;;;;;;;1.00;1.00;;;;;17.44;72.56;100918.53;5117234;27;45253;-79
2021/09/26 05:01:09;;;;;;;;;1.00;1.00;;;;;17.72;72.85;100973.31;5111915;27;45497;-78
2021/09/26 05:03:35;;;;;;;;;1.00;1.00;;;;;17.69;73.08;100976.00;5117487;27;45504;-78
2021/09/26 05:06:01;;;;;;;;;0.00;0.00;;;;;17.72;72.93;100976.81;5118237;27;45237;-79
2021/09/26 05:08:26;;;;;;;;;0.00;0.00;;;;;17.65;72.84;100972.56;5117987;27;45591;-78
2021/09/26 05:10:51;;;;;;;;;0.00;0.00;;;;;17.68;73.05;100983.03;5118822;27;45447;-75
2021/09/26 05:13:16;;;;;;;;;0.00;0.00;;;;;17.66;72.82;100986.56;5113442;27;45312;-77
2021/09/26 05:15:42;;;;;;;;;0.00;0.00;;;;;17.70;73.29;101002.31;5104635;27;45805;-77
2021/09/26 05:18:07;;;;;;;;;1.50;0.00;;;;;17.61;72.74;100994.53;5099054;27;45544;-77
2021/09/26 05:20:32;;;;;;;;;0.00;0.00;;;;;17.72;73.03;101013.69;5103136;27;45347;-77
2021/09/26 05:22:58;;;;;;;;;0.75;0.75;;;;;17.70;73.17;101012.84;5103741;27;45537;-77
2021/09/26 05:25:24;;;;;;;;;1.00;1.00;;;;;17.68;73.01;101005.84;5102637;27;45393;-77
2021/09/26 05:27:49;;;;;;;;;1.00;0.00;;;;;17.52;73.19;100984.19;5099270;27;45565;-77
2021/09/26 05:30:15;;;;;;;;;0.00;0.00;;;;;17.67;73.20;101014.66;5100469;27;45680;-78
2021/09/26 05:32:40;;;;;;;;;0.00;0.00;;;;;17.66;73.29;101011.16;5102731;27;48136;-77
2021/09/26 05:35:06;;;;;;;;;0.00;0.00;;;;;17.71;73.09;101024.25;5102077;27;45343;-77
2021/09/26 05:37:32;;;;;;;;;0.00;0.00;;;;;17.55;73.08;100992.88;5100494;27;45345;-78
2021/09/26 05:39:57;;;;;;;;;0.00;0.00;;;;;17.72;73.40;101018.06;5102936;27;45443;-78
2021/09/26 05:42:22;;;;;;;;;0.00;0.00;;;;;17.79;73.01;101030.22;5103770;27;46048;-78
2021/09/26 05:44:48;;;;;;;;;0.00;0.00;;;;;17.92;73.20;101048.47;5101683;27;45584;-78
2021/09/26 05:47:14;;;;;;;;;0.75;0.00;;;;;17.77;73.09;101018.88;5101322;27;45327;-78
2021/09/26 05:49:41;;;;;;;;;0.00;0.00;;;;;17.70;72.78;100998.81;5101907;27;45468;-78
2021/09/26 05:52:08;;;;;;;;;1.25;0.00;;;;;17.68;72.52;100990.94;5095400;27;45353;-78
2021/09/26 05:54:35;;;;;;;;;0.00;0.00;;;;;17.77;72.89;101010.97;5098051;27;45763;-77
2021/09/26 05:57:00;;;;;;;;;1.00;1.00;;;;;18.03;72.63;101064.06;5103755;27;45446;-78
2021/09/26 05:59:26;;;;;;;;;0.00;0.00;;;;;17.92;72.95;101045.84;5113877;27;45524;-77
2021/09/26 06:01:51;;;;;;;;;2.00;0.00;;;;;17.91;73.05;101047.59;5103119;27;46002;-78
2021/09/26 06:04:17;;;;;;;;;0.00;0.00;;;;;17.97;73.12;101051.88;5103294;27;45344;-77
2021/09/26 06:06:42;;;;;;;;;2.00;0.75;;;;;18.04;72.73;101073.72;5098980;27;45452;-77
2021/09/26 06:09:07;;;;;;;;;1.00;1.00;;;;;17.97;72.95;101070.31;5092700;27;45321;-78
2021/09/26 06:11:33;;;;;;;;;1.50;0.00;;;;;18.04;73.12;101084.25;5099181;27;46875;-78
2021/09/26 06:13:58;;;;;;;;;0.00;0.00;;;;;17.87;73.27;101064.34;5100847;27;45409;-76
2021/09/26 06:16:23;;;;;;;;;0.00;0.00;;;;;17.95;73.21;101083.50;5102095;27;45486;-77
2021/09/26 06:18:49;;;;;;;;;1.25;0.75;;;;;17.73;73.16;101046.13;5114645;27;45322;-76
2021/09/26 06:21:14;;;;;;;;;0.00;0.00;;;;;17.67;73.13;101068.16;5103499;27;45467;-76
2021/09/26 06:23:40;;;;;;;;;1.00;0.00;;;;;17.60;73.63;101045.47;5101633;27;45899;-77
2021/09/26 06:26:05;;;;;;;;;0.00;0.00;;;;;17.92;73.71;101104.63;5100621;27;45305;-77
2021/09/26 06:28:30;;;;;;;;;0.50;0.50;;;;;17.71;73.74;101067.22;5103367;27;45281;-77
2021/09/26 06:30:56;;;;;;;;;1.00;0.00;;;;;17.92;73.49;101091.44;5101741;27;48016;-77
2021/09/26 06:33:21;;;;;;;;;0.00;0.00;;;;;17.63;72.97;101053.31;5102529;27;45549;-77
2021/09/26 06:35:47;;;;;;;;;0.00;0.00;;;;;17.66;73.52;101076.97;5097232;27;45392;-78
2021/09/26 06:38:12;;;;;;;;;1.00;0.00;;;;;17.83;73.66;101110.06;5099869;27;45594;-78
2021/09/26 06:40:38;;;;;;;;;0.75;0.00;;;;;17.76;73.64;101104.00;5103265;27;45550;-78
2021/09/26 06:43:03;;;;;;;;;1.00;1.00;;;;;17.84;73.53;101117.06;5102469;27;45401;-78
2021/09/26 06:45:29;;;;;;;;;0.00;0.00;;;;;17.59;73.60;101084.09;5098050;27;45403;-78
2021/09/26 06:47:54;;;;;;;;;0.00;0.00;;;;;17.72;74.37;101126.00;5092895;27;45445;-77
2021/09/26 06:50:20;;;;;;;;;0.00;0.00;;;;;17.56;74.25;101122.75;5095888;27;48090;-80
2021/09/26 06:52:45;;;;;;;;;0.75;0.75;;;;;17.48;74.29;101081.63;5102132;27;45422;-77
2021/09/26 06:55:11;;;;;;;;;0.00;0.00;;;;;17.46;74.33;101096.53;5101858;27;45401;-78
2021/09/26 06:57:36;;;;;;;;;1.75;0.50;;;;;17.55;74.28;101108.69;5101156;27;45464;-78
2021/09/26 07:00:04;;;;;;;;;0.00;0.00;;;;;17.69;74.15;101123.41;5099080;27;47400;-78
2021/09/26 07:02:29;;;;;;;;;0.00;0.00;;;;;17.64;74.54;101120.84;5100619;27;45354;-78
2021/09/26 07:04:55;;;;;;;;;2.00;0.00;;;;;17.53;74.35;101094.72;5101822;27;45514;-77
2021/09/26 07:07:24;;;;;;;;;0.00;0.00;;;;;17.66;73.96;101110.31;5099810;27;45384;-78
2021/09/26 07:09:51;;;;;;;;;1.50;0.25;;;;;17.71;74.47;101121.66;5096864;27;48088;-77
2021/09/26 07:12:17;;;;;;;;;0.50;0.50;;;;;17.70;74.76;101125.19;5098287;27;45385;-77
2021/09/26 07:14:44;;;;;;;;;1.00;1.00;;;;;17.77;74.32;101132.09;5100141;27;45599;-78
2021/09/26 07:17:09;;;;;;;;;0.25;0.25;;;;;17.82;74.36;101137.25;5087769;27;45600;-78
2021/09/26 07:19:35;;;;;;;;;0.00;0.00;;;;;17.88;73.73;101150.34;5091209;27;45451;-78
2021/09/26 07:22:00;;;;;;;;;0.25;0.25;;;;;17.67;74.34;101118.19;5092090;27;45443;-77
2021/09/26 07:24:25;;;;;;;;;0.00;0.00;;;;;17.80;73.93;101121.47;5092862;27;45226;-78
2021/09/26 07:26:51;;;;;;;;;0.25;0.25;;;;;17.92;74.18;101140.63;5096916;27;45214;-78
2021/09/26 07:29:16;;;;;;;;;0.00;0.00;;;;;17.84;74.28;101125.84;5085786;27;45482;-77
2021/09/26 07:31:42;;;;;;;;;0.00;0.00;;;;;17.86;74.01;101129.28;5097189;27;45455;-77
2021/09/26 07:34:07;;;;;;;;;0.00;0.00;;;;;17.96;73.67;101144.97;5090711;27;45436;-77
2021/09/26 07:36:32;;;;;;;;;0.00;0.00;;;;;18.06;73.67;101154.47;5089854;27;45396;-78
2021/09/26 07:38:58;;;;;;;;;0.00;0.00;;;;;18.09;73.79;101159.69;5092753;27;48352;-79
2021/09/26 07:41:24;;;;;;;;;0.00;0.00;;;;;17.92;73.60;101128.31;5101204;27;45392;-79
2021/09/26 07:43:49;;;;;;;;;0.25;0.25;;;;;18.08;73.41;101146.53;5084361;27;45497;-80
2021/09/26 07:46:15;;;;;;;;;0.00;0.00;;;;;18.16;73.49;101163.09;5091939;27;45608;-80
2021/09/26 07:48:40;;;;;;;;;0.50;0.50;;;;;18.01;73.25;101142.25;5088135;27;47132;-79
2021/09/26 07:51:06;;;;;;;;;1.00;0.00;;;;;18.16;72.95;101152.56;5100584;27;45458;-79
2021/09/26 07:53:33;;;;;;;;;0.75;0.75;;;;;18.26;72.86;101171.75;5102006;27;45401;-79
2021/09/26 07:55:59;;;;;;;;;0.00;0.00;;;;;18.04;72.71;101143.06;5102598;27;45427;-78
2021/09/26 07:58:26;;;;;;;;;2.00;1.00;;;;;18.16;73.16;101155.19;5106895;27;47345;-78
2021/09/26 08:00:52;;;;;;;;;1.25;1.00;;;;;18.32;72.75;101187.44;5093943;27;45284;-78
2021/09/26 08:03:17;;;;;;;;;1.00;1.00;;;;;17.86;72.86;101116.13;5091111;27;45574;-80
2021/09/26 08:05:43;;;;;;;;;2.00;2.00;;;;;18.27;72.86;101180.50;5093449;27;45586;-86
2021/09/26 08:08:09;;;;;;;;;0.00;0.00;;;;;17.91;72.41;101107.28;5087863;27;47004;-79
2021/09/26 08:10:34;;;;;;;;;2.00;1.00;;;;;18.23;72.81;101158.63;5096248;27;45494;-75
2021/09/26 08:12:59;;;;;;;;;1.00;1.00;;;;;18.53;72.79;101201.13;5092415;27;45274;-76
2021/09/26 08:15:25;;;;;;;;;1.00;0.00;;;;;18.46;72.12;101188.97;5109183;27;45625;-76
2021/09/26 08:17:50;;;;;;;;;1.00;0.50;;;;;18.59;72.13;101205.47;5092297;27;46312;-76
2021/09/26 08:20:17;;;;;;;;;1.00;1.00;;;;;18.57;72.20;101196.69;5092314;27;45433;-76
2021/09/26 08:22:43;;;;;;;;;0.00;0.00;;;;;18.56;72.09;101174.72;5099243;27;45538;-75
2021/09/26 08:25:09;;;;;;;;;1.25;1.00;;;;;18.75;71.91;101179.69;5097332;27;45264;-76
2021/09/26 08:27:36;;;;;;;;;0.50;0.00;;;;;18.84;71.72;101190.03;5080436;28;47407;-79
2021/09/26 08:30:07;;;;;;;;;1.00;0.00;;;;;18.91;71.57;101180.25;5081642;27;45581;-78
2021/09/26 08:32:33;;;;;;;;;1.50;0.00;;;;;19.16;71.01;101195.63;5100641;27;45431;-77
2021/09/26 08:34:58;;;;;;;;;0.00;0.00;;;;;19.28;70.76;101183.94;5098275;27;45360;-77
2021/09/26 08:37:24;;;;;;;;;0.75;0.00;;;;;19.40;70.62;101167.00;5081625;27;48258;-76
2021/09/26 08:39:49;;;;;;;;;0.00;0.00;;;;;19.59;69.88;101179.78;5082833;27;45470;-77
2021/09/26 08:42:16;;;;;;;;;0.00;0.00;;;;;19.66;69.29;101173.44;5092678;27;45451;-83
2021/09/26 08:44:42;;;;;;;;;1.00;0.00;;;;;19.79;69.39;101215.44;5093791;27;45629;-76
2021/09/26 08:47:07;;;;;;;;;2.00;0.50;;;;;19.63;69.09;101192.00;5091712;27;46907;-76
2021/09/26 08:49:33;;;;;;;;;0.00;0.00;;;;;19.59;69.16;101182.41;5092751;27;45348;-77
2021/09/26 08:51:58;;;;;;;;;1.00;0.00;;;;;19.63;68.78;101194.63;5094336;27;45699;-77
2021/09/26 08:54:24;;;;;;;;;0.00;0.00;;;;;19.46;68.66;101156.31;5114237;27;45465;-88
2021/09/26 08:56:50;;;;;;;;;0.00;0.00;;;;;19.73;68.73;101195.31;5095043;27;46688;-75
2021/09/26 08:59:15;;;;;;;;;1.00;1.00;;;;;19.82;68.23;101204.81;5101395;27;45680;-75
2021/09/26 09:01:41;;;;;;;;;0.00;0.00;;;;;19.79;68.09;101208.41;5105157;27;45340;-77
2021/09/26 09:04:06;;;;;;;;;1.50;1.50;;;;;19.78;67.98;101211.91;5092033;27;45448;-79
2021/09/26 09:06:44;;;;;;;;;1.00;1.00;;;;;19.73;67.94;101174.19;5084497;27;47263;-78
2021/09/26 09:09:15;;;;;;;;;0.00;0.00;;;;;20.03;67.19;101213.19;5083532;28;45313;-76
2021/09/26 09:11:56;;;;;;;;;1.50;1.50;;;;;20.08;67.17;101196.31;5086509;27;45309;-77
2021/09/26 09:14:22;;;;;;;;;3.50;0.00;;;;;20.12;67.31;101187.38;5095771;27;45576;-77
2021/09/26 09:16:53;;;;;;;;;1.00;0.00;;;;;20.21;66.14;101202.16;5100477;27;45462;-78
2021/09/26 09:19:23;;;;;;;;;0.00;0.00;;;;;20.00;66.85;101177.97;5096613;27;45242;-77
2021/09/26 09:22:08;;;;;;;;;0.50;0.50;;;;;20.10;66.46;101207.72;5109116;27;45495;-80
2021/09/26 09:24:41;;;;;;;;;0.00;0.00;;;;;19.91;66.66;101157.06;5098118;27;45794;-80
2021/09/26 09:27:07;;;;;;;;;0.00;0.00;;;;;20.34;66.40;101186.00;5097931;27;47318;-76
2021/09/26 09:29:37;;;;;;;;;0.00;0.00;;;;;20.58;65.72;101183.63;5102089;27;45447;-78
2021/09/26 09:32:14;;;;;;;;;0.50;0.50;;;;;20.82;65.29;101202.41;5092867;27;46659;-79
2021/09/26 09:34:41;;;;;;;;;0.00;0.00;;;;;20.85;65.15;101158.19;5095595;27;45574;-76
2021/09/26 09:37:16;;;;;;;;;0.00;0.00;;;;;21.30;64.73;101197.56;5102174;27;45495;-77
2021/09/26 09:40:15;;;;;;;;;0.00;0.00;;;;;21.44;64.08;101205.94;5103245;27;45810;-80
2021/09/26 09:42:59;;;;;;;;;1.00;0.00;;;;;21.55;63.37;101216.25;5096388;27;45561;-78
2021/09/26 09:45:32;;;;;;;;;0.00;0.00;;;;;21.48;63.35;101206.75;5092501;27;45405;-87
2021/09/26 09:48:21;;;;;;;;;0.75;0.75;;;;;21.60;62.67;101201.09;5092583;27;45479;-77
2021/09/26 09:50:46;;;;;;;;;1.00;0.00;;;;;21.75;62.96;101204.22;5094065;27;45454;-78
2021/09/26 09:53:30;;;;;;;;;0.00;0.00;;;;;21.68;62.43;101207.94;5091283;27;45624;-80
2021/09/26 09:56:03;;;;;;;;;0.00;0.00;;;;;21.64;62.40;101212.44;5091834;27;45511;-83
2021/09/26 09:58:35;;;;;;;;;0.00;0.00;;;;;21.49;62.81;101206.69;5086133;27;47122;-78
2021/09/26 10:01:03;;;;;;;;;0.00;0.00;;;;;21.39;62.39;101199.94;5089268;27;45538;-78
2021/09/26 10:03:41;;;;;;;;;0.25;0.25;;;;;21.50;62.85;101194.34;5090770;27;45675;-78
2021/09/26 10:06:40;;;;;;;;;0.00;0.00;;;;;21.46;61.83;101192.66;5116310;27;45563;-78
2021/09/26 10:09:23;;;;;;;;;0.00;0.00;;;;;21.34;61.53;101200.06;5083004;27;47306;-76
2021/09/26 10:11:57;;;;;;;;;0.75;0.00;;;;;21.18;62.08;101204.94;5091707;27;45521;-79
2021/09/26 10:14:28;;;;;;;;;0.00;0.00;;;;;20.98;61.97;101193.13;5085377;27;45259;-79
2021/09/26 10:16:56;;;;;;;;;2.00;0.00;;;;;20.92;62.45;101208.34;5094129;27;45553;-79
2021/09/26 10:19:22;;;;;;;;;0.00;0.00;;;;;20.92;62.64;101219.75;5095693;27;45402;-77
2021/09/26 10:21:54;;;;;;;;;0.00;0.00;;;;;20.92;62.38;101210.97;5089174;27;45549;-77
2021/09/26 10:24:21;;;;;;;;;0.00;0.00;;;;;20.77;62.90;101190.13;5099008;27;45570;-77
2021/09/26 10:26:47;;;;;;;;;1.00;0.00;;;;;20.70;63.24;101193.88;5097808;27;45468;-78
2021/09/26 10:29:14;;;;;;;;;1.00;1.00;;;;;20.78;63.46;101209.53;5095300;27;45414;-78
2021/09/26 10:31:40;;;;;;;;;0.00;0.00;;;;;20.71;63.71;101210.63;5089751;27;45357;-78
2021/09/26 10:34:07;;;;;;;;;0.00;0.00;;;;;20.80;63.49;101204.22;5094694;27;45384;-77
2021/09/26 10:36:35;;;;;;;;;0.00;0.00;;;;;20.81;63.34;101187.41;5093136;27;45379;-77
2021/09/26 10:39:03;;;;;;;;;0.00;0.00;;;;;20.74;63.14;101174.34;5094697;27;45423;-77
2021/09/26 10:41:30;;;;;;;;;0.00;0.00;;;;;20.80;62.95;101183.94;5097507;27;45412;-77
2021/09/26 10:43:56;;;;;;;;;1.00;0.00;;;;;20.83;62.78;101183.81;5090153;27;45163;-77
2021/09/26 10:46:24;;;;;;;;;0.00;0.00;;;;;21.02;63.08;101205.38;5106651;27;45596;-79
2021/09/26 10:48:55;;;;;;;;;0.00;0.00;;;;;21.16;62.71;101206.75;5089910;27;45416;-79
2021/09/26 10:51:52;;;;;;;;;1.00;0.50;;;;;21.20;63.31;101189.91;5090892;27;45874;-79
2021/09/26 10:54:32;;;;;;;;;0.00;0.00;;;;;21.37;62.56;101207.06;5089172;27;45417;-82
2021/09/26 10:57:03;;;;;;;;;1.00;0.75;;;;;21.43;62.23;101204.22;5087495;27;45331;-79
2021/09/26 10:59:51;;;;;;;;;0.00;0.00;;;;;21.28;61.38;101194.94;5100487;27;45488;-78
2021/09/26 11:02:23;;;;;;;;;2.00;0.00;;;;;21.30;61.64;101205.50;5086190;27;45760;-79
2021/09/26 11:04:57;;;;;;;;;0.00;0.00;;;;;21.19;61.14;101195.25;5086485;27;45479;-78
2021/09/26 11:07:25;;;;;;;;;0.00;0.00;;;;;21.13;61.38;101186.53;5095185;27;45877;-78
2021/09/26 11:09:55;;;;;;;;;0.00;0.00;;;;;21.22;61.00;101196.00;5085656;27;45515;-77
2021/09/26 11:13:06;;;;;;;;;0.00;0.00;;;;;21.25;61.26;101201.22;5084355;27;45466;-80
2021/09/26 11:15:32;;;;;;;;;1.00;1.00;;;;;21.33;61.79;101184.22;5019639;28;45317;-77
2021/09/26 11:17:58;;;;;;;;;0.00;0.00;;;;;21.41;61.17;101179.59;5023863;28;45336;-80
2021/09/26 11:20:30;;;;;;;;;0.00;0.00;;;;;21.53;60.14;101186.28;5066335;27;47394;-82
2021/09/26 11:23:04;;;;;;;;;0.00;0.00;;;;;21.67;59.52;101184.97;5083421;27;45365;-77
2021/09/26 11:26:03;;;;;;;;;0.00;0.00;;;;;21.92;59.89;101182.47;5099981;27;45486;-78
2021/09/26 11:28:39;;;;;;;;;0.00;0.00;;;;;22.02;60.10;101186.53;5103086;27;45223;-78
2021/09/26 11:31:10;;;;;;;;;0.00;0.00;;;;;22.13;59.27;101175.59;5100364;27;48683;-78
2021/09/26 11:33:55;;;;;;;;;0.00;0.00;;;;;22.10;59.30;101167.75;5098676;27;45381;-79
2021/09/26 11:36:21;;;;;;;;;0.00;0.00;;;;;22.08;59.52;101172.22;5101938;27;45582;-79
2021/09/26 11:38:47;;;;;;;;;0.00;0.00;;;;;22.09;59.06;101171.31;5103004;27;45402;-78
2021/09/26 11:41:12;;;;;;;;;0.00;0.00;;;;;22.00;58.66;101151.28;5099106;27;45419;-80
2021/09/26 11:44:00;;;;;;;;;0.00;0.00;;;;;22.24;59.06;101175.22;5080875;28;45340;-78
2021/09/26 11:46:27;;;;;;;;;0.00;0.00;;;;;22.09;58.98;101142.16;5083059;27;45277;-79
2021/09/26 11:48:57;;;;;;;;;0.25;0.25;;;;;22.19;58.73;101155.97;5083013;27;45545;-78
2021/09/26 11:51:25;;;;;;;;;0.00;0.00;;;;;22.13;58.47;101151.75;5089694;27;47110;-78
2021/09/26 11:53:51;;;;;;;;;0.25;0.00;;;;;21.92;58.98;101145.38;5092000;27;45171;-79
2021/09/26 11:56:26;;;;;;;;;0.00;0.00;;;;;21.89;59.08;101145.47;5089780;27;45468;-78
2021/09/26 11:59:04;;;;;;;;;1.00;0.00;;;;;22.10;59.23;101161.56;5091432;27;45447;-77
2021/09/26 12:01:35;;;;;;;;;0.50;0.50;;;;;22.16;59.32;101158.72;5106458;27;45637;-78
2021/09/26 12:04:20;;;;;;;;;0.25;0.25;;;;;22.00;58.80;101126.56;5089150;27;45331;-78
2021/09/26 12:06:47;;;;;;;;;0.00;0.00;;;;;22.12;59.23;101151.78;5094514;27;45452;-78
2021/09/26 12:09:32;;;;;;;;;0.00;0.00;;;;;22.05;59.34;101131.72;5101063;27;45610;-79
2021/09/26 12:11:57;;;;;;;;;0.00;0.00;;;;;21.95;59.47;101094.91;5091162;27;45541;-78
2021/09/26 12:14:29;;;;;;;;;0.00;0.00;;;;;22.23;58.80;101143.47;5090163;27;45479;-79
2021/09/26 12:16:55;;;;;;;;;0.00;0.00;;;;;22.14;59.72;101128.72;5092802;27;45904;-79
2021/09/26 12:19:21;;;;;;;;;0.00;0.00;;;;;22.13;59.33;101135.84;5089870;27;45436;-79
2021/09/26 12:21:46;;;;;;;;;0.00;0.00;;;;;22.00;59.36;101129.22;5091696;27;45511;-78
2021/09/26 12:24:16;;;;;;;;;0.00;0.00;;;;;21.83;59.00;101112.09;5098742;27;45274;-78
2021/09/26 12:26:45;;;;;;;;;0.00;0.00;;;;;21.98;59.87;101128.38;5096299;27;45345;-78
2021/09/26 12:29:23;;;;;;;;;0.00;0.00;;;;;21.94;60.05;101119.69;5105691;27;45569;-79
2021/09/26 12:31:54;;;;;;;;;0.00;0.00;;;;;21.77;59.94;101099.91;5100134;27;47630;-79
2021/09/26 12:34:37;;;;;;;;;0.00;0.00;;;;;21.97;60.08;101137.25;5084909;27;45255;-79
2021/09/26 12:37:03;;;;;;;;;1.75;1.00;;;;;21.69;60.82;101096.63;5090422;27;45412;-81
2021/09/26 12:39:36;;;;;;;;;0.00;0.00;;;;;21.63;61.32;101094.16;5085923;27;45310;-80
2021/09/26 12:42:03;;;;;;;;;0.00;0.00;;;;;21.59;60.97;101089.88;5083955;28;48257;-81
2021/09/26 12:44:36;;;;;;;;;0.00;0.00;;;;;21.54;61.72;101102.41;5101205;27;45707;-79
2021/09/26 12:47:14;;;;;;;;;0.00;0.00;;;;;21.31;61.33;101054.53;5099210;27;45364;-81